Time;durP1;ratioP1;P1;durP2;ratioP2;P2;SDS_P1;SDS_P2;PMS_P1;PMS_P2;Temp;Humidity;BMP_temperature;BMP_pressure;BME280_temperature;BME280_humidity;BME280_pressure;Samples;Min_cycle;Max_cycle;Signal;HPM_P1;HPM_P2
2023/04/08 00:01:18;;;;;;;17.80;16.30;;;10.70;99.90;;;;;;10481567;28;20228;-82
2023/04/08 00:06:20;;;;;;;19.70;17.90;;;10.70;99.90;;;;;;10463039;28;20273;-83
2023/04/08 00:11:22;;;;;;;19.33;17.53;;;10.70;99.90;;;;;;10460279;28;20277;-82
2023/04/08 00:16:25;;;;;;;19.77;17.90;;;10.70;99.90;;;;;;10456444;28;20562;-83
2023/04/08 00:21:27;;;;;;;19.10;17.30;;;10.70;99.90;;;;;;10454403;28;20586;-82
2023/04/08 00:26:29;;;;;;;19.07;17.37;;;10.70;99.90;;;;;;10455106;28;20221;-82
2023/04/08 00:31:33;;;;;;;18.00;16.33;;;10.70;99.90;;;;;;10457149;28;20284;-83
2023/04/08 00:36:35;;;;;;;18.80;16.90;;;10.70;99.90;;;;;;10461832;28;20213;-85
2023/04/08 00:41:37;;;;;;;18.43;16.77;;;10.60;99.90;;;;;;10469136;28;20226;-84
2023/04/08 00:46:41;;;;;;;18.50;16.80;;;10.60;99.90;;;;;;10463261;28;20226;-82
2023/04/08 00:51:43;;;;;;;18.67;16.87;;;10.60;99.90;;;;;;10462069;28;20566;-83
2023/04/08 00:56:45;;;;;;;18.63;16.93;;;10.60;99.90;;;;;;10460212;28;20281;-83
2023/04/08 01:01:57;;;;;;;18.20;16.53;;;10.60;99.90;;;;;;10451606;28;20619;-84
2023/04/08 01:07:13;;;;;;;17.87;16.33;;;10.60;99.90;;;;;;10460439;28;20314;-83
2023/04/08 01:12:27;;;;;;;18.07;16.47;;;10.60;99.90;;;;;;10457723;28;20236;-84
2023/04/08 01:17:32;;;;;;;17.83;16.23;;;10.60;99.90;;;;;;10457440;28;20214;-83
2023/04/08 01:22:43;;;;;;;17.00;15.50;;;10.60;99.90;;;;;;10459206;28;20296;-84
2023/04/08 01:27:49;;;;;;;17.20;15.73;;;10.60;99.90;;;;;;10459224;28;20284;-82
2023/04/08 01:32:52;;;;;;;17.20;15.60;;;10.60;99.90;;;;;;10464216;28;20579;-83
2023/04/08 01:37:57;;;;;;;17.83;16.27;;;10.60;99.90;;;;;;10470870;28;20210;-83
2023/04/08 01:43:01;;;;;;;16.47;14.90;;;10.50;99.90;;;;;;10469730;28;20303;-81
2023/04/08 01:48:05;;;;;;;16.97;15.53;;;10.50;99.90;;;;;;10470618;28;20199;-81
2023/04/08 01:53:09;;;;;;;16.73;15.30;;;10.50;99.90;;;;;;10469214;28;20666;-82
2023/04/08 01:58:20;;;;;;;17.63;16.13;;;10.50;99.90;;;;;;10467311;28;20620;-81
2023/04/08 02:03:25;;;;;;;17.60;16.00;;;10.50;99.90;;;;;;10452409;28;20267;-80
2023/04/08 02:08:27;;;;;;;17.50;16.00;;;10.50;99.90;;;;;;10487589;28;20220;-81
2023/04/08 02:13:32;;;;;;;18.10;16.50;;;10.50;99.90;;;;;;10479534;28;20213;-81
2023/04/08 02:18:36;;;;;;;18.57;16.77;;;10.50;99.90;;;;;;10471809;28;20228;-81
2023/04/08 02:23:41;;;;;;;18.70;16.80;;;10.50;99.90;;;;;;10492379;28;20252;-80
2023/04/08 02:28:47;;;;;;;18.50;16.80;;;10.50;99.90;;;;;;10470977;28;20202;-80
2023/04/08 02:33:50;;;;;;;19.13;17.30;;;10.50;99.90;;;;;;10470902;28;20389;-81
2023/04/08 02:38:52;;;;;;;19.97;18.17;;;10.50;99.90;;;;;;10467077;28;20201;-81
2023/04/08 02:43:55;;;;;;;19.87;17.87;;;10.40;99.90;;;;;;10466945;28;20272;-81
2023/04/08 02:48:57;;;;;;;19.53;17.80;;;10.40;99.90;;;;;;10466420;28;20613;-81
2023/04/08 02:54:00;;;;;;;20.07;18.07;;;10.40;99.90;;;;;;10461942;28;20300;-80
2023/04/08 02:59:03;;;;;;;21.83;19.57;;;10.40;99.90;;;;;;10464753;28;20521;-81
2023/04/08 03:04:06;;;;;;;21.67;19.63;;;10.40;99.90;;;;;;10462915;28;20232;-81
2023/04/08 03:09:08;;;;;;;22.20;20.00;;;10.40;99.90;;;;;;10443327;28;20311;-81
2023/04/08 03:14:11;;;;;;;23.03;20.80;;;10.40;99.90;;;;;;10444625;28;20711;-83
2023/04/08 03:19:13;;;;;;;21.67;19.40;;;10.30;99.90;;;;;;10459886;28;20190;-81
2023/04/08 03:24:15;;;;;;;21.53;19.23;;;10.30;99.90;;;;;;10462239;28;20221;-81
2023/04/08 03:29:19;;;;;;;22.87;20.47;;;10.30;99.90;;;;;;10461717;28;20225;-82
2023/04/08 03:34:21;;;;;;;23.00;19.87;;;10.30;99.90;;;;;;10463035;28;20300;-82
2023/04/08 03:39:23;;;;;;;20.63;18.43;;;10.30;99.90;;;;;;10468259;28;20248;-81
2023/04/08 03:44:26;;;;;;;22.17;19.97;;;10.30;99.90;;;;;;10469734;28;20231;-81
2023/04/08 03:49:28;;;;;;;22.50;20.17;;;10.30;99.90;;;;;;10479767;28;20639;-81
2023/04/08 03:54:30;;;;;;;20.50;18.37;;;10.30;99.90;;;;;;10467444;28;20210;-82
2023/04/08 03:59:35;;;;;;;19.10;17.17;;;10.30;99.90;;;;;;10467509;28;20280;-82
2023/04/08 04:04:37;;;;;;;18.60;16.80;;;10.30;99.90;;;;;;10462674;28;20221;-81
2023/04/08 04:09:39;;;;;;;21.60;19.30;;;10.30;99.90;;;;;;10461961;28;20585;-81
2023/04/08 04:14:42;;;;;;;18.70;16.90;;;10.30;99.90;;;;;;10477695;28;20304;-81
2023/04/08 04:19:44;;;;;;;17.50;14.90;;;10.30;99.90;;;;;;10460122;28;20292;-82
2023/04/08 04:24:48;;;;;;;22.80;20.00;;;10.30;99.90;;;;;;10459695;28;20245;-82
2023/04/08 04:29:51;;;;;;;28.27;20.17;;;10.30;99.90;;;;;;10462350;28;20193;-82
2023/04/08 04:34:53;;;;;;;23.03;20.63;;;10.20;99.90;;;;;;10466109;28;20276;-83
2023/04/08 04:39:55;;;;;;;22.47;20.40;;;10.20;99.90;;;;;;10463974;28;20236;-82
2023/04/08 04:44:59;;;;;;;23.27;20.77;;;10.20;99.90;;;;;;10447934;28;20647;-83
2023/04/08 04:50:01;;;;;;;22.60;20.20;;;10.10;99.90;;;;;;10435590;28;20274;-82
2023/04/08 04:55:03;;;;;;;24.40;21.90;;;10.00;99.90;;;;;;10461473;28;20209;-83
2023/04/08 05:00:08;;;;;;;23.47;21.17;;;9.90;99.90;;;;;;10461321;28;20252;-83
2023/04/08 05:05:10;;;;;;;24.00;21.53;;;9.90;99.90;;;;;;10462548;28;20253;-83
2023/04/08 05:10:12;;;;;;;25.10;22.50;;;9.80;99.90;;;;;;10470267;28;20209;-82
2023/04/08 05:15:15;;;;;;;27.40;24.37;;;9.80;99.90;;;;;;10473413;28;20764;-83
2023/04/08 05:20:18;;;;;;;27.33;23.10;;;9.90;99.90;;;;;;10457159;28;20253;-82
2023/04/08 05:25:20;;;;;;;26.83;24.13;;;9.90;99.90;;;;;;10475516;28;20232;-81
2023/04/08 05:30:23;;;;;;;24.07;21.63;;;9.90;99.90;;;;;;10498847;28;20198;-82
2023/04/08 05:35:25;;;;;;;26.17;23.53;;;10.00;99.90;;;;;;10475888;28;20723;-81
2023/04/08 05:40:27;;;;;;;26.17;23.37;;;10.00;99.90;;;;;;10482415;28;20380;-83
2023/04/08 05:45:31;;;;;;;26.77;24.07;;;10.00;99.90;;;;;;10497962;28;20407;-81
2023/04/08 05:50:35;;;;;;;26.97;24.27;;;10.10;99.90;;;;;;10499884;28;20182;-81
2023/04/08 05:55:37;;;;;;;25.47;23.00;;;10.10;99.90;;;;;;10454058;28;20312;-81
2023/04/08 06:00:40;;;;;;;26.13;23.60;;;10.10;99.90;;;;;;10462491;28;20258;-81
2023/04/08 06:05:42;;;;;;;25.47;22.97;;;10.10;99.90;;;;;;10466071;28;20229;-82
2023/04/08 06:10:51;;;;;;;24.50;22.10;;;10.20;99.90;;;;;;10467573;28;20238;-83
2023/04/08 06:15:54;;;;;;;25.47;22.83;;;10.20;99.90;;;;;;10469997;28;20227;-82
2023/04/08 06:20:58;;;;;;;24.33;22.03;;;10.20;99.90;;;;;;10478598;28;20210;-81
2023/04/08 06:26:00;;;;;;;22.97;20.83;;;10.30;99.90;;;;;;10473191;28;20222;-82
2023/04/08 06:31:03;;;;;;;24.47;21.97;;;10.30;99.90;;;;;;10468156;28;20201;-83
2023/04/08 06:36:07;;;;;;;24.33;21.83;;;10.40;99.90;;;;;;10451143;28;20304;-81
2023/04/08 06:41:09;;;;;;;23.30;21.00;;;10.40;99.90;;;;;;10469818;28;20259;-82
2023/04/08 06:46:12;;;;;;;22.53;20.27;;;10.50;99.90;;;;;;10471142;28;20216;-82
2023/04/08 06:51:14;;;;;;;23.43;21.13;;;10.50;99.90;;;;;;10469072;28;20219;-82
2023/04/08 06:56:16;;;;;;;20.77;18.73;;;10.60;99.90;;;;;;10467193;28;20274;-82
2023/04/08 07:01:20;;;;;;;21.77;19.67;;;10.60;99.90;;;;;;10475322;28;20220;-81
2023/04/08 07:06:22;;;;;;;20.57;18.63;;;10.60;99.90;;;;;;10455042;28;20717;-81
2023/04/08 07:11:24;;;;;;;20.13;18.23;;;10.60;99.90;;;;;;10470081;28;20194;-81
2023/04/08 07:16:27;;;;;;;20.30;18.50;;;10.70;99.90;;;;;;10470121;28;20245;-82
2023/04/08 07:21:30;;;;;;;20.17;18.17;;;10.70;99.90;;;;;;10446106;28;20239;-83
2023/04/08 07:26:32;;;;;;;19.50;17.60;;;10.70;99.90;;;;;;10463729;28;20436;-79
2023/04/08 07:31:36;;;;;;;20.20;18.30;;;10.80;99.90;;;;;;10463511;28;20190;-82
2023/04/08 07:36:38;;;;;;;19.70;17.80;;;10.90;99.90;;;;;;10464076;28;20309;-81
2023/04/08 07:41:40;;;;;;;18.67;16.87;;;10.90;99.90;;;;;;10463842;28;20217;-80
2023/04/08 07:46:44;;;;;;;18.33;16.60;;;11.00;99.90;;;;;;10457252;28;20229;-81
2023/04/08 07:51:48;;;;;;;17.20;15.67;;;11.20;99.90;;;;;;10458150;28;20192;-81
2023/04/08 07:56:50;;;;;;;17.90;16.10;;;11.40;99.90;;;;;;10459518;28;20210;-83
2023/04/08 08:01:54;;;;;;;17.43;15.77;;;11.50;99.90;;;;;;10464023;28;20753;-83
2023/04/08 08:06:56;;;;;;;16.33;14.93;;;11.70;99.90;;;;;;10466094;28;20218;-81
2023/04/08 08:11:58;;;;;;;15.73;14.33;;;11.70;99.90;;;;;;10465556;28;20206;-82
2023/04/08 08:17:03;;;;;;;16.13;14.67;;;11.80;99.90;;;;;;10466823;28;20295;-83
2023/04/08 08:22:05;;;;;;;16.50;15.00;;;12.00;99.90;;;;;;10467621;28;20650;-82
2023/04/08 08:27:09;;;;;;;15.40;14.00;;;12.10;99.90;;;;;;10464244;28;20674;-82
2023/04/08 08:32:13;;;;;;;15.10;13.80;;;12.10;99.90;;;;;;10451048;28;20209;-81
2023/04/08 08:37:15;;;;;;;16.00;14.70;;;12.20;99.90;;;;;;10472601;28;20214;-81
2023/04/08 08:42:21;;;;;;;15.50;14.10;;;12.20;99.90;;;;;;10443066;28;20206;-81
2023/04/08 08:47:25;;;;;;;16.40;14.90;;;12.30;99.90;;;;;;10437617;28;20220;-82
2023/04/08 08:52:27;;;;;;;16.40;15.00;;;12.40;99.90;;;;;;10436926;28;20578;-82
2023/04/08 08:57:29;;;;;;;17.20;15.70;;;12.60;99.90;;;;;;10436928;28;20387;-82
2023/04/08 09:02:32;;;;;;;15.80;14.50;;;12.70;99.90;;;;;;10457170;28;20681;-83
2023/04/08 09:07:39;;;;;;;15.73;14.33;;;12.90;99.90;;;;;;10456676;28;20307;-80
2023/04/08 09:12:54;;;;;;;17.50;15.90;;;13.00;99.90;;;;;;10438604;28;20239;-81
2023/04/08 09:17:58;;;;;;;16.93;15.43;;;13.30;99.90;;;;;;10460902;28;20220;-83
2023/04/08 09:23:01;;;;;;;15.60;14.30;;;13.50;99.90;;;;;;10460744;28;20633;-83
2023/04/08 09:28:04;;;;;;;17.47;15.77;;;13.70;99.90;;;;;;10461466;28;20214;-83
2023/04/08 09:33:07;;;;;;;14.33;13.03;;;13.80;99.90;;;;;;10464119;28;20197;-81
2023/04/08 09:38:09;;;;;;;16.37;14.93;;;13.90;99.70;;;;;;10459776;28;20205;-83
2023/04/08 09:43:18;;;;;;;14.30;13.10;;;14.00;98.00;;;;;;10464239;28;20277;-83
2023/04/08 09:48:26;;;;;;;17.13;15.53;;;14.10;97.90;;;;;;10465257;28;20194;-83
2023/04/08 09:53:34;;;;;;;15.47;14.17;;;14.20;97.20;;;;;;10468476;28;20233;-83
2023/04/08 09:58:42;;;;;;;15.40;14.00;;;14.30;96.50;;;;;;10470449;28;20194;-83
2023/04/08 10:03:52;;;;;;;16.07;14.40;;;14.50;96.10;;;;;;10474302;28;20209;-82
2023/04/08 10:08:55;;;;;;;15.50;14.00;;;14.60;94.60;;;;;;10455023;28;20243;-82
2023/04/08 10:13:57;;;;;;;15.33;14.03;;;14.80;93.40;;;;;;10482906;28;20232;-82
2023/04/08 10:19:01;;;;;;;16.07;14.63;;;14.90;93.20;;;;;;10469020;28;20558;-82
2023/04/08 10:24:06;;;;;;;14.67;13.27;;;15.00;91.50;;;;;;10469890;28;20225;-83
2023/04/08 10:29:34;;;;;;;15.83;14.53;;;15.00;93.00;;;;;;10472298;28;20186;-83
2023/04/08 10:34:52;;;;;;;15.27;13.97;;;14.90;92.80;;;;;;10476692;28;20206;-81
2023/04/08 10:39:55;;;;;;;15.50;14.00;;;14.70;92.20;;;;;;10481965;28;20194;-83
2023/04/08 10:45:01;;;;;;;16.00;14.57;;;14.50;91.90;;;;;;10469237;28;20275;-83
2023/04/08 10:50:14;;;;;;;16.97;14.80;;;14.30;91.80;;;;;;10469540;28;20205;-82
2023/04/08 10:55:17;;;;;;;15.17;13.77;;;14.10;91.60;;;;;;10467938;28;20734;-83
2023/04/08 11:00:31;;;;;;;15.93;14.53;;;13.90;92.40;;;;;;10449368;28;20197;-83
2023/04/08 11:05:36;;;;;;;16.70;15.30;;;13.70;91.50;;;;;;10466224;28;20586;-83
2023/04/08 11:10:40;;;;;;;16.33;14.90;;;13.60;92.60;;;;;;10467424;28;20289;-82
2023/04/08 11:15:42;;;;;;;15.83;14.23;;;13.50;89.10;;;;;;10468137;28;20210;-83
2023/04/08 11:20:46;;;;;;;13.90;12.70;;;13.40;92.60;;;;;;10451066;28;20673;-82
2023/04/08 11:25:48;;;;;;;14.20;13.00;;;13.40;90.50;;;;;;10487827;28;20258;-80
2023/04/08 11:30:52;;;;;;;17.80;13.63;;;13.50;90.70;;;;;;10469416;28;20198;-83
2023/04/08 11:35:55;;;;;;;14.90;13.57;;;13.60;91.60;;;;;;10467898;28;20260;-82
2023/04/08 11:40:58;;;;;;;13.07;11.97;;;13.60;91.00;;;;;;10453123;28;20217;-83
2023/04/08 11:46:01;;;;;;;14.30;13.10;;;13.60;90.60;;;;;;10477741;28;20228;-82
2023/04/08 11:51:07;;;;;;;15.30;14.00;;;13.60;90.40;;;;;;10447591;28;20194;-82
2023/04/08 11:56:17;;;;;;;14.00;12.90;;;13.60;89.60;;;;;;10461702;28;20255;-83
2023/04/08 12:01:20;;;;;;;14.10;12.90;;;13.50;89.90;;;;;;10445224;28;20210;-83
2023/04/08 12:06:26;;;;;;;13.67;12.47;;;13.50;87.90;;;;;;10463556;28;20300;-83
2023/04/08 12:11:28;;;;;;;14.60;13.30;;;13.40;91.10;;;;;;10464627;28;20221;-82
2023/04/08 12:16:30;;;;;;;12.60;11.60;;;13.40;91.20;;;;;;10463353;28;20218;-81
2023/04/08 12:21:34;;;;;;;14.67;13.37;;;13.40;92.60;;;;;;10466852;28;20202;-82
2023/04/08 12:26:36;;;;;;;18.23;16.53;;;13.40;90.40;;;;;;10467037;28;20226;-82
2023/04/08 12:31:38;;;;;;;15.83;14.47;;;13.30;92.50;;;;;;10466157;28;20292;-80
2023/04/08 12:36:43;;;;;;;15.10;13.80;;;13.40;91.10;;;;;;10464173;28;20222;-81
2023/04/08 12:41:45;;;;;;;14.20;13.07;;;13.40;90.00;;;;;;10469897;28;20197;-81
2023/04/08 12:46:47;;;;;;;14.57;13.30;;;13.40;88.30;;;;;;10461290;28;20224;-82
2023/04/08 12:51:51;;;;;;;12.53;11.53;;;13.50;91.50;;;;;;10463620;28;20194;-83
2023/04/08 12:56:53;;;;;;;14.10;13.00;;;13.60;90.20;;;;;;10464098;28;20217;-83
2023/04/08 13:01:55;;;;;;;12.67;11.67;;;13.60;91.40;;;;;;10463237;28;20503;-82
2023/04/08 13:06:59;;;;;;;13.03;11.93;;;13.60;90.00;;;;;;10464538;28;20222;-82
2023/04/08 13:12:02;;;;;;;14.37;13.07;;;13.60;91.40;;;;;;10465440;28;20194;-81
2023/04/08 13:17:04;;;;;;;13.03;11.93;;;13.60;90.70;;;;;;10465999;28;20225;-83
2023/04/08 13:22:07;;;;;;;14.30;13.10;;;13.60;91.80;;;;;;10473804;28;20221;-82
2023/04/08 13:27:09;;;;;;;12.53;11.57;;;13.60;89.80;;;;;;10457255;28;20464;-82
2023/04/08 13:32:11;;;;;;;13.93;12.73;;;13.50;90.60;;;;;;10464901;28;20210;-79
2023/04/08 13:37:15;;;;;;;15.30;14.10;;;13.60;89.10;;;;;;10461228;28;20316;-82
2023/04/08 13:42:17;;;;;;;13.93;12.80;;;13.50;90.20;;;;;;10465610;28;20253;-82
2023/04/08 13:47:19;;;;;;;13.20;12.20;;;13.50;91.00;;;;;;10467467;28;20244;-82
2023/04/08 13:52:23;;;;;;;14.27;12.90;;;13.50;90.70;;;;;;10469454;28;20190;-81
2023/04/08 13:57:26;;;;;;;14.90;13.43;;;13.50;91.40;;;;;;10449465;28;20271;-83
2023/04/08 14:02:28;;;;;;;14.97;13.67;;;13.50;90.00;;;;;;10469724;28;20218;-82
2023/04/08 14:07:32;;;;;;;13.07;11.87;;;13.50;89.90;;;;;;10454362;28;20233;-82
2023/04/08 14:12:34;;;;;;;14.47;13.20;;;13.50;91.50;;;;;;10491923;28;20197;-81
2023/04/08 14:17:36;;;;;;;11.97;11.07;;;13.60;92.20;;;;;;10462830;28;20305;-82
2023/04/08 14:22:40;;;;;;;14.27;13.07;;;13.70;91.00;;;;;;10469260;28;20241;-82
2023/04/08 14:27:43;;;;;;;13.60;12.40;;;13.80;90.60;;;;;;10467100;28;20575;-82
2023/04/08 14:32:45;;;;;;;13.80;12.70;;;13.80;92.00;;;;;;10452043;28;20190;-82
2023/04/08 14:37:48;;;;;;;12.77;11.77;;;13.80;92.10;;;;;;10454041;28;20725;-82
2023/04/08 14:42:50;;;;;;;12.30;11.10;;;13.80;91.60;;;;;;10471756;28;20209;-82
2023/04/08 14:47:52;;;;;;;12.57;11.60;;;13.70;91.30;;;;;;10433956;28;20214;-79
2023/04/08 14:52:57;;;;;;;13.30;12.23;;;13.70;92.50;;;;;;10481041;28;20198;-82
2023/04/08 14:57:59;;;;;;;13.40;12.27;;;13.70;92.00;;;;;;10473238;28;20222;-81
2023/04/08 15:03:02;;;;;;;12.70;11.70;;;13.60;92.00;;;;;;10461226;28;20209;-82
2023/04/08 15:08:06;;;;;;;11.30;10.40;;;13.60;90.60;;;;;;10452695;22;20705;-80
2023/04/08 15:13:08;;;;;;;10.17;9.33;;;13.50;90.70;;;;;;10420332;28;20735;-80
2023/04/08 15:18:10;;;;;;;10.37;9.57;;;13.40;90.60;;;;;;10406547;28;20215;-82
2023/04/08 15:23:13;;;;;;;9.70;8.90;;;13.30;91.20;;;;;;10422099;28;20298;-83
2023/04/08 15:28:15;;;;;;;9.73;8.90;;;13.30;91.10;;;;;;10421930;28;20226;-82
2023/04/08 15:33:18;;;;;;;8.60;7.90;;;13.30;90.80;;;;;;10417443;28;20717;-83
2023/04/08 15:38:21;;;;;;;9.20;8.50;;;13.30;91.90;;;;;;10416603;28;20648;-82
2023/04/08 15:43:23;;;;;;;8.63;7.90;;;13.20;91.20;;;;;;10416974;28;20695;-81
2023/04/08 15:48:25;;;;;;;8.03;7.43;;;13.20;90.20;;;;;;10399673;28;20237;-81
2023/04/08 15:53:29;;;;;;;7.27;6.77;;;13.10;90.10;;;;;;10417205;28;20193;-82
2023/04/08 15:58:31;;;;;;;7.30;6.70;;;12.90;90.90;;;;;;10399217;28;20624;-82
2023/04/08 16:03:33;;;;;;;7.27;6.77;;;12.90;91.30;;;;;;10415571;28;20665;-81
2023/04/08 16:08:36;;;;;;;7.07;6.50;;;12.90;90.20;;;;;;10416317;28;20229;-82
2023/04/08 16:13:41;;;;;;;6.97;6.47;;;12.70;91.00;;;;;;10416509;28;20233;-82
2023/04/08 16:18:43;;;;;;;6.90;6.30;;;12.60;91.20;;;;;;10398975;28;20225;-82
2023/04/08 16:23:46;;;;;;;6.90;6.40;;;12.50;92.40;;;;;;10398664;28;20297;-82
2023/04/08 16:28:48;;;;;;;7.30;6.80;;;12.50;92.60;;;;;;10400073;28;20238;-81
2023/04/08 16:33:53;;;;;;;8.33;7.60;;;12.50;92.80;;;;;;10420834;28;20190;-83
2023/04/08 16:38:57;;;;;;;7.40;6.70;;;12.50;92.50;;;;;;10425064;28;20222;-84
2023/04/08 16:43:59;;;;;;;7.87;7.27;;;12.50;92.50;;;;;;10427542;28;20215;-80
2023/04/08 16:49:01;;;;;;;8.33;7.70;;;12.40;93.00;;;;;;10422920;28;20226;-81
2023/04/08 16:54:05;;;;;;;7.87;7.27;;;12.40;93.10;;;;;;10406619;28;20195;-78
2023/04/08 16:59:07;;;;;;;7.50;6.90;;;12.40;93.20;;;;;;10421793;28;20202;-81
2023/04/08 17:04:10;;;;;;;9.20;8.33;;;12.30;93.10;;;;;;10418567;28;20305;-80
2023/04/08 17:09:13;;;;;;;7.97;7.30;;;12.30;93.10;;;;;;10420546;28;20281;-81
2023/04/08 17:14:15;;;;;;;7.40;6.80;;;12.20;93.90;;;;;;10414825;28;20211;-81
2023/04/08 17:19:17;;;;;;;7.80;7.30;;;12.20;93.00;;;;;;10399302;28;20199;-80
2023/04/08 17:24:21;;;;;;;7.30;6.80;;;12.10;93.50;;;;;;10417434;28;20229;-80
2023/04/08 17:29:23;;;;;;;7.80;7.20;;;12.10;94.10;;;;;;10419945;28;20226;-81
2023/04/08 17:34:25;;;;;;;8.13;7.53;;;12.00;94.00;;;;;;10429216;28;20220;-81
2023/04/08 17:39:39;;;;;;;9.50;8.80;;;12.00;95.50;;;;;;10417856;28;20190;-82
2023/04/08 17:44:41;;;;;;;7.80;7.20;;;12.00;95.60;;;;;;10418204;28;20222;-81
2023/04/08 17:49:43;;;;;;;8.20;7.60;;;11.90;94.70;;;;;;10400081;28;20198;-81
2023/04/08 17:54:46;;;;;;;8.87;8.17;;;11.90;95.60;;;;;;10400922;28;20211;-80
2023/04/08 17:59:48;;;;;;;9.00;8.30;;;11.90;95.10;;;;;;10400345;28;20685;-80
2023/04/08 18:04:51;;;;;;;9.23;8.43;;;11.80;95.60;;;;;;10438932;28;20254;-79
2023/04/08 18:09:57;;;;;;;9.23;8.53;;;11.80;96.00;;;;;;10432457;28;20393;-80
2023/04/08 18:14:59;;;;;;;7.83;7.23;;;11.70;96.00;;;;;;10409039;28;20380;-81
2023/04/08 18:20:01;;;;;;;9.63;8.83;;;11.70;96.20;;;;;;10426443;28;20225;-80
2023/04/08 18:25:05;;;;;;;10.77;9.97;;;11.70;95.60;;;;;;10422172;28;20321;-80
2023/04/08 18:30:08;;;;;;;9.87;9.07;;;11.60;96.00;;;;;;10405784;28;20221;-80
2023/04/08 18:35:11;;;;;;;9.60;8.80;;;11.60;96.20;;;;;;10423206;28;20261;-80
2023/04/08 18:40:14;;;;;;;10.60;9.67;;;11.60;95.80;;;;;;10422210;28;20663;-80
2023/04/08 18:45:16;;;;;;;9.80;9.00;;;11.50;96.10;;;;;;10422955;28;20218;-80
2023/04/08 18:50:18;;;;;;;10.37;9.47;;;11.50;95.50;;;;;;10422375;28;20206;-81
2023/04/08 18:55:22;;;;;;;9.40;8.80;;;11.50;95.60;;;;;;10425024;28;20210;-81
2023/04/08 19:00:24;;;;;;;11.10;10.30;;;11.40;95.40;;;;;;10423722;28;20226;-82
2023/04/08 19:05:26;;;;;;;10.20;9.40;;;11.40;95.20;;;;;;10424962;28;20281;-80
2023/04/08 19:10:31;;;;;;;10.53;9.80;;;11.40;95.20;;;;;;10423815;28;20191;-82
2023/04/08 19:15:34;;;;;;;10.90;10.00;;;11.40;95.40;;;;;;10406485;28;20290;-82
2023/04/08 19:20:36;;;;;;;17.03;15.50;;;11.40;94.70;;;;;;10424223;28;20194;-82
2023/04/08 19:25:40;;;;;;;11.87;10.97;;;11.30;95.10;;;;;;10393408;28;20227;-82
2023/04/08 19:30:42;;;;;;;11.10;10.23;;;11.30;94.90;;;;;;10423765;28;20225;-82
2023/04/08 19:35:44;;;;;;;10.67;9.80;;;11.30;95.30;;;;;;10421388;28;20214;-81
2023/04/08 19:40:47;;;;;;;10.70;9.90;;;11.30;95.30;;;;;;10423566;28;20202;-81
2023/04/08 19:45:53;;;;;;;10.93;10.03;;;11.30;95.60;;;;;;10419705;28;20685;-82
2023/04/08 19:50:55;;;;;;;11.23;10.40;;;11.20;96.00;;;;;;10409425;28;20198;-82
2023/04/08 19:56:02;;;;;;;11.13;10.23;;;11.30;95.60;;;;;;10423637;28;20305;-81
2023/04/08 20:01:06;;;;;;;10.97;10.07;;;11.30;95.00;;;;;;10431673;28;20302;-82
2023/04/08 20:06:08;;;;;;;11.00;10.13;;;11.20;95.90;;;;;;10424339;28;20313;-82
2023/04/08 20:11:12;;;;;;;10.23;9.43;;;11.20;95.20;;;;;;10407041;28;20229;-82
2023/04/08 20:16:14;;;;;;;10.53;9.73;;;11.20;95.30;;;;;;10423547;28;20691;-82
2023/04/08 20:21:17;;;;;;;10.87;9.97;;;11.10;94.80;;;;;;10424698;28;20256;-82
2023/04/08 20:26:20;;;;;;;10.40;9.70;;;11.10;95.90;;;;;;10424077;28;20246;-82
2023/04/08 20:31:22;;;;;;;11.30;10.20;;;11.10;95.90;;;;;;10420632;28;20203;-80
2023/04/08 20:36:27;;;;;;;10.63;9.83;;;11.10;96.20;;;;;;10400617;28;20457;-81
2023/04/08 20:41:30;;;;;;;10.93;10.13;;;11.10;96.00;;;;;;10423753;28;20209;-82
2023/04/08 20:46:33;;;;;;;10.17;9.23;;;11.10;96.30;;;;;;10406640;28;20230;-82
2023/04/08 20:51:35;;;;;;;11.83;10.90;;;11.10;96.00;;;;;;10421645;28;20253;-81
2023/04/08 20:56:39;;;;;;;12.27;11.20;;;11.10;95.60;;;;;;10406988;28;20576;-82
2023/04/08 21:01:41;;;;;;;17.17;14.13;;;11.00;95.70;;;;;;10420825;28;20210;-81
2023/04/08 21:06:43;;;;;;;13.03;11.83;;;11.00;96.00;;;;;;10482189;23;20312;-81
2023/04/08 21:11:46;;;;;;;11.73;10.70;;;11.00;95.80;;;;;;10503472;28;20207;-83
2023/04/08 21:16:48;;;;;;;12.00;11.10;;;10.90;95.90;;;;;;10481923;28;20297;-82
2023/04/08 21:21:51;;;;;;;14.03;12.43;;;10.90;95.80;;;;;;10480085;28;20198;-83
2023/04/08 21:26:56;;;;;;;10.33;9.43;;;10.80;95.90;;;;;;10473192;28;20241;-82
2023/04/08 21:31:58;;;;;;;11.03;10.10;;;10.80;96.30;;;;;;10473596;28;20227;-83
2023/04/08 21:37:00;;;;;;;12.27;11.13;;;10.70;96.40;;;;;;10478094;28;20224;-82
2023/04/08 21:42:04;;;;;;;12.07;11.10;;;10.60;96.20;;;;;;10477917;28;20201;-81
2023/04/08 21:47:06;;;;;;;12.87;11.67;;;10.60;95.80;;;;;;10455729;28;20226;-81
2023/04/08 21:52:08;;;;;;;12.10;11.10;;;10.50;95.90;;;;;;10501090;28;20219;-80
2023/04/08 21:57:12;;;;;;;12.43;11.17;;;10.40;96.20;;;;;;10486243;28;20216;-82
2023/04/08 22:02:14;;;;;;;12.23;11.03;;;10.30;96.10;;;;;;10485979;28;20198;-82
2023/04/08 22:07:16;;;;;;;13.40;12.10;;;10.30;96.00;;;;;;10493526;28;20237;-81
2023/04/08 22:12:20;;;;;;;12.57;11.57;;;10.20;96.30;;;;;;10472216;28;20200;-83
2023/04/08 22:17:22;;;;;;;12.83;11.73;;;10.10;96.20;;;;;;10492136;28;20281;-83
2023/04/08 22:22:24;;;;;;;14.20;12.90;;;10.10;96.30;;;;;;10483351;28;20290;-82
2023/04/08 22:27:29;;;;;;;14.13;12.83;;;10.00;96.60;;;;;;10510215;28;20216;-83
2023/04/08 22:32:31;;;;;;;13.03;12.03;;;10.00;96.80;;;;;;10481487;28;20295;-83
2023/04/08 22:37:33;;;;;;;13.50;12.30;;;9.90;97.30;;;;;;10479115;28;20529;-83
2023/04/08 22:42:36;;;;;;;14.00;12.70;;;9.90;97.30;;;;;;10489363;28;20201;-82
2023/04/08 22:47:38;;;;;;;16.00;13.87;;;9.90;97.60;;;;;;10474854;28;20582;-82
2023/04/08 22:52:40;;;;;;;14.70;13.20;;;9.90;97.70;;;;;;10492978;28;20200;-82
2023/04/08 22:57:44;;;;;;;14.20;13.10;;;9.80;97.80;;;;;;10471849;28;20213;-83
2023/04/08 23:02:46;;;;;;;19.90;15.80;;;9.80;97.50;;;;;;10477240;28;20257;-82
2023/04/08 23:07:51;;;;;;;56.20;22.87;;;9.80;97.50;;;;;;10489991;28;20227;-81
2023/04/08 23:12:55;;;;;;;13.53;12.40;;;9.80;97.80;;;;;;10481530;28;20200;-81
2023/04/08 23:17:57;;;;;;;13.37;12.33;;;9.80;97.60;;;;;;10471036;28;20366;-83
2023/04/08 23:22:59;;;;;;;14.33;13.10;;;9.80;97.70;;;;;;10479298;28;20323;-83
2023/04/08 23:28:02;;;;;;;14.83;13.60;;;9.80;97.80;;;;;;10496807;28;20247;-82
2023/04/08 23:33:04;;;;;;;14.27;12.87;;;9.70;97.80;;;;;;10476068;28;20645;-83
2023/04/08 23:38:06;;;;;;;13.03;12.03;;;9.80;97.60;;;;;;10475885;28;20223;-82
2023/04/08 23:43:10;;;;;;;14.80;13.40;;;9.80;98.00;;;;;;10489694;28;20564;-82
2023/04/08 23:48:12;;;;;;;13.30;12.17;;;9.80;97.90;;;;;;10459594;28;20315;-82
2023/04/08 23:53:14;;;;;;;13.30;12.10;;;9.80;98.30;;;;;;10476751;28;20675;-81
2023/04/08 23:58:17;;;;;;;13.30;12.20;;;9.80;98.30;;;;;;10469477;28;20225;-81
